sensor_id;sensor_type;location;lat;lon;timestamp;pressure;altitude;pressure_sealevel;temperature;humidity
56270;BME280;42176;43.240;27.880;2023-09-19T00:00:11;100514.56;;;17.60;100.00
56270;BME280;42176;43.240;27.880;2023-09-19T00:02:13;100508.13;;;17.64;100.00
56270;BME280;42176;43.240;27.880;2023-09-19T00:04:13;100506.38;;;17.63;100.00
56270;BME280;42176;43.240;27.880;2023-09-19T00:06:14;100506.38;;;17.63;100.00
56270;BME280;42176;43.240;27.880;2023-09-19T00:08:16;100490.59;;;17.57;100.00
56270;BME280;42176;43.240;27.880;2023-09-19T00:10:16;100499.28;;;17.62;100.00
56270;BME280;42176;43.240;27.880;2023-09-19T00:12:20;100508.13;;;17.64;100.00
56270;BME280;42176;43.240;27.880;2023-09-19T00:14:20;100509.59;;;17.71;100.00
56270;BME280;42176;43.240;27.880;2023-09-19T00:16:25;100504.13;;;17.74;100.00
56270;BME280;42176;43.240;27.880;2023-09-19T00:18:26;100496.84;;;17.76;100.00
56270;BME280;42176;43.240;27.880;2023-09-19T00:20:35;100499.59;;;17.75;100.00
56270;BME280;42176;43.240;27.880;2023-09-19T00:22:39;100496.69;;;17.79;100.00
56270;BME280;42176;43.240;27.880;2023-09-19T00:24:39;100496.69;;;17.79;100.00
56270;BME280;42176;43.240;27.880;2023-09-19T00:26:40;100492.13;;;17.81;100.00
56270;BME280;42176;43.240;27.880;2023-09-19T00:28:41;100487.72;;;17.80;100.00
56270;BME280;42176;43.240;27.880;2023-09-19T00:30:45;100496.84;;;17.76;100.00
56270;BME280;42176;43.240;27.880;2023-09-19T00:32:52;100490.97;;;17.68;100.00
56270;BME280;42176;43.240;27.880;2023-09-19T00:35:06;100494.69;;;17.65;100.00
56270;BME280;42176;43.240;27.880;2023-09-19T00:37:11;100484.81;;;17.66;100.00
56270;BME280;42176;43.240;27.880;2023-09-19T00:41:14;100484.34;;;17.56;100.00
56270;BME280;42176;43.240;27.880;2023-09-19T00:43:15;100485.50;;;17.50;100.00
56270;BME280;42176;43.240;27.880;2023-09-19T00:45:17;100489.13;;;17.49;100.00
56270;BME280;42176;43.240;27.880;2023-09-19T00:47:18;100487.53;;;17.45;100.00
56270;BME280;42176;43.240;27.880;2023-09-19T00:49:19;100481.56;;;17.39;100.00
56270;BME280;42176;43.240;27.880;2023-09-19T00:51:22;100487.94;;;17.36;100.00
56270;BME280;42176;43.240;27.880;2023-09-19T00:53:23;100481.28;;;17.26;100.00
56270;BME280;42176;43.240;27.880;2023-09-19T00:55:25;100495.25;;;17.32;100.00
56270;BME280;42176;43.240;27.880;2023-09-19T00:57:30;100488.16;;;17.31;100.00
56270;BME280;42176;43.240;27.880;2023-09-19T00:59:32;100486.34;;;17.32;100.00
56270;BME280;42176;43.240;27.880;2023-09-19T01:01:36;100484.75;;;17.28;100.00
56270;BME280;42176;43.240;27.880;2023-09-19T01:03:42;100490.13;;;17.28;100.00
56270;BME280;42176;43.240;27.880;2023-09-19T01:05:44;100488.38;;;17.27;100.00
56270;BME280;42176;43.240;27.880;2023-09-19T01:07:47;100485.69;;;17.27;100.00
56270;BME280;42176;43.240;27.880;2023-09-19T01:09:49;100490.88;;;17.30;100.00
56270;BME280;42176;43.240;27.880;2023-09-19T01:11:53;100488.38;;;17.27;100.00
56270;BME280;42176;43.240;27.880;2023-09-19T01:18:43;100478.84;;;17.19;100.00
56270;BME280;42176;43.240;27.880;2023-09-19T01:20:53;100483.41;;;17.17;100.00
56270;BME280;42176;43.240;27.880;2023-09-19T01:23:14;100481.66;;;17.16;100.00
56270;BME280;42176;43.240;27.880;2023-09-19T01:29:46;100469.34;;;17.12;100.00
56270;BME280;42176;43.240;27.880;2023-09-19T01:31:52;100472.97;;;17.11;100.00
56270;BME280;42176;43.240;27.880;2023-09-19T01:34:02;100453.53;;;17.06;100.00
56270;BME280;42176;43.240;27.880;2023-09-19T01:36:04;100466.69;;;17.12;100.00
56270;BME280;42176;43.240;27.880;2023-09-19T01:40:18;100467.41;;;17.16;100.00
56270;BME280;42176;43.240;27.880;2023-09-19T01:42:29;100474.38;;;17.20;100.00
56270;BME280;42176;43.240;27.880;2023-09-19T01:44:40;100473.38;;;17.23;100.00
56270;BME280;42176;43.240;27.880;2023-09-19T01:46:44;100483.94;;;17.26;100.00
56270;BME280;42176;43.240;27.880;2023-09-19T01:51:21;100482.00;;;17.29;100.00
56270;BME280;42176;43.240;27.880;2023-09-19T01:53:36;100482.06;;;17.28;100.00
56270;BME280;42176;43.240;27.880;2023-09-19T01:55:47;100477.66;;;17.27;100.00
56270;BME280;42176;43.240;27.880;2023-09-19T01:58:08;100468.50;;;17.31;100.00
56270;BME280;42176;43.240;27.880;2023-09-19T02:02:17;100476.56;;;17.31;100.00
56270;BME280;42176;43.240;27.880;2023-09-19T02:04:22;100481.91;;;17.31;100.00
56270;BME280;42176;43.240;27.880;2023-09-19T02:06:23;100480.97;;;17.32;100.00
56270;BME280;42176;43.240;27.880;2023-09-19T02:08:25;100475.63;;;17.32;100.00
56270;BME280;42176;43.240;27.880;2023-09-19T02:10:26;100486.34;;;17.32;100.00
56270;BME280;42176;43.240;27.880;2023-09-19T02:12:27;100467.88;;;17.26;100.00
56270;BME280;42176;43.240;27.880;2023-09-19T02:14:30;100477.50;;;17.30;100.00
56270;BME280;42176;43.240;27.880;2023-09-19T02:16:40;100469.53;;;17.28;100.00
56270;BME280;42176;43.240;27.880;2023-09-19T02:18:42;100473.03;;;17.30;100.00
56270;BME280;42176;43.240;27.880;2023-09-19T02:20:43;100474.16;;;17.25;100.00
56270;BME280;42176;43.240;27.880;2023-09-19T02:22:46;100474.03;;;17.28;100.00
56270;BME280;42176;43.240;27.880;2023-09-19T02:24:46;100477.50;;;17.30;100.00
56270;BME280;42176;43.240;27.880;2023-09-19T02:26:48;100476.63;;;17.29;100.00
56270;BME280;42176;43.240;27.880;2023-09-19T02:28:49;100467.06;;;17.24;100.00
56270;BME280;42176;43.240;27.880;2023-09-19T02:30:49;100463.72;;;17.18;100.00
56270;BME280;42176;43.240;27.880;2023-09-19T02:32:52;100468.69;;;17.28;100.00
56270;BME280;42176;43.240;27.880;2023-09-19T02:34:53;100472.28;;;17.27;100.00
56270;BME280;42176;43.240;27.880;2023-09-19T02:36:56;100459.97;;;17.23;100.00
56270;BME280;42176;43.240;27.880;2023-09-19T02:38:57;100467.06;;;17.24;100.00
56270;BME280;42176;43.240;27.880;2023-09-19T02:41:00;100468.94;;;17.22;100.00
56270;BME280;42176;43.240;27.880;2023-09-19T02:43:04;100467.06;;;17.24;100.00
56270;BME280;42176;43.240;27.880;2023-09-19T02:45:05;100468.00;;;17.23;100.00
56270;BME280;42176;43.240;27.880;2023-09-19T02:47:06;100470.81;;;17.19;100.00
56270;BME280;42176;43.240;27.880;2023-09-19T02:49:06;100469.06;;;17.18;100.00
56270;BME280;42176;43.240;27.880;2023-09-19T02:51:07;100451.38;;;17.14;100.00
56270;BME280;42176;43.240;27.880;2023-09-19T02:53:10;100455.16;;;17.10;100.00
56270;BME280;42176;43.240;27.880;2023-09-19T02:55:13;100468.47;;;17.12;100.00
56270;BME280;42176;43.240;27.880;2023-09-19T02:57:20;100457.16;;;17.05;100.00
56270;BME280;42176;43.240;27.880;2023-09-19T02:59:21;100446.88;;;16.96;100.00
56270;BME280;42176;43.240;27.880;2023-09-19T03:01:22;100451.81;;;17.05;100.00
56270;BME280;42176;43.240;27.880;2023-09-19T03:03:22;100450.13;;;17.02;100.00
56270;BME280;42176;43.240;27.880;2023-09-19T03:05:26;100456.56;;;16.98;100.00
56270;BME280;42176;43.240;27.880;2023-09-19T03:07:28;100458.34;;;16.98;100.00
56270;BME280;42176;43.240;27.880;2023-09-19T03:09:32;100455.66;;;16.98;100.00
56270;BME280;42176;43.240;27.880;2023-09-19T03:11:32;100459.31;;;16.97;100.00
56270;BME280;42176;43.240;27.880;2023-09-19T03:13:33;100453.97;;;16.97;100.00
56270;BME280;42176;43.240;27.880;2023-09-19T03:15:57;100448.59;;;16.97;100.00
56270;BME280;42176;43.240;27.880;2023-09-19T03:17:58;100452.06;;;16.99;100.00
56270;BME280;42176;43.240;27.880;2023-09-19T03:19:59;100453.06;;;16.96;100.00
56270;BME280;42176;43.240;27.880;2023-09-19T03:22:00;100462.78;;;16.99;100.00
56270;BME280;42176;43.240;27.880;2023-09-19T03:24:03;100459.31;;;16.97;100.00
56270;BME280;42176;43.240;27.880;2023-09-19T03:26:07;100462.78;;;16.99;100.00
56270;BME280;42176;43.240;27.880;2023-09-19T03:28:08;100461.91;;;16.98;100.00
56270;BME280;42176;43.240;27.880;2023-09-19T03:30:09;100463.72;;;16.98;100.00
56270;BME280;42176;43.240;27.880;2023-09-19T03:32:14;100468.38;;;16.93;100.00
56270;BME280;42176;43.240;27.880;2023-09-19T03:34:15;100470.25;;;16.90;100.00
56270;BME280;42176;43.240;27.880;2023-09-19T03:36:16;100472.13;;;16.88;100.00
56270;BME280;42176;43.240;27.880;2023-09-19T03:38:16;100465.03;;;16.87;100.00
56270;BME280;42176;43.240;27.880;2023-09-19T03:40:17;100475.59;;;16.90;100.00
56270;BME280;42176;43.240;27.880;2023-09-19T03:42:20;100471.19;;;16.89;100.00
56270;BME280;42176;43.240;27.880;2023-09-19T03:44:31;100470.25;;;16.90;100.00
56270;BME280;42176;43.240;27.880;2023-09-19T03:46:32;100464.91;;;16.90;100.00
56270;BME280;42176;43.240;27.880;2023-09-19T03:48:32;100469.44;;;16.88;100.00
56270;BME280;42176;43.240;27.880;2023-09-19T03:50:36;100468.63;;;16.86;100.00
56270;BME280;42176;43.240;27.880;2023-09-19T03:52:37;100477.34;;;16.92;100.00
56270;BME280;42176;43.240;27.880;2023-09-19T03:54:37;100481.81;;;16.91;100.00
56270;BME280;42176;43.240;27.880;2023-09-19T03:56:38;100470.50;;;16.84;100.00
56270;BME280;42176;43.240;27.880;2023-09-19T03:58:41;100470.38;;;16.87;100.00
56270;BME280;42176;43.240;27.880;2023-09-19T04:00:41;100482.03;;;16.86;100.00
56270;BME280;42176;43.240;27.880;2023-09-19T04:02:44;100464.41;;;16.81;100.00
56270;BME280;42176;43.240;27.880;2023-09-19T04:04:46;100475.00;;;16.84;100.00
56270;BME280;42176;43.240;27.880;2023-09-19T04:06:46;100473.25;;;16.83;100.00
56270;BME280;42176;43.240;27.880;2023-09-19T04:08:47;100469.44;;;16.88;100.00
56270;BME280;42176;43.240;27.880;2023-09-19T04:10:48;100465.63;;;16.94;100.00
56270;BME280;42176;43.240;27.880;2023-09-19T04:12:52;100451.28;;;16.97;100.00
56270;BME280;42176;43.240;27.880;2023-09-19T04:14:56;100464.13;;;17.09;100.00
56270;BME280;42176;43.240;27.880;2023-09-19T04:16:56;100458.47;;;17.15;100.00
56270;BME280;42176;43.240;27.880;2023-09-19T04:18:57;100451.25;;;17.17;100.00
56270;BME280;42176;43.240;27.880;2023-09-19T04:21:00;100451.78;;;17.26;100.00
56270;BME280;42176;43.240;27.880;2023-09-19T04:23:03;100459.41;;;17.35;100.00
56270;BME280;42176;43.240;27.880;2023-09-19T04:25:05;100450.81;;;17.47;100.00
56270;BME280;42176;43.240;27.880;2023-09-19T04:27:09;100451.47;;;17.53;100.00
56270;BME280;42176;43.240;27.880;2023-09-19T04:29:10;100452.06;;;17.59;100.00
56270;BME280;42176;43.240;27.880;2023-09-19T04:31:11;100445.41;;;17.68;100.00
56270;BME280;42176;43.240;27.880;2023-09-19T04:33:12;100440.91;;;17.69;100.00
56270;BME280;42176;43.240;27.880;2023-09-19T04:35:14;100461.84;;;17.79;100.00
56270;BME280;42176;43.240;27.880;2023-09-19T04:37:15;100458.75;;;17.89;100.00
56270;BME280;42176;43.240;27.880;2023-09-19T04:39:15;100445.41;;;17.87;100.00
56270;BME280;42176;43.240;27.880;2023-09-19T04:41:16;100452.81;;;18.01;100.00
56270;BME280;42176;43.240;27.880;2023-09-19T04:43:20;100452.50;;;18.07;100.00
56270;BME280;42176;43.240;27.880;2023-09-19T04:45:20;100453.69;;;18.21;100.00
56270;BME280;42176;43.240;27.880;2023-09-19T04:47:21;100439.94;;;18.99;100.00
56270;BME280;42176;43.240;27.880;2023-09-19T04:49:22;100455.81;;;20.20;100.00
56270;BME280;42176;43.240;27.880;2023-09-19T04:51:22;100447.25;;;21.05;94.81
56270;BME280;42176;43.240;27.880;2023-09-19T04:53:23;100445.19;;;21.83;87.70
56270;BME280;42176;43.240;27.880;2023-09-19T04:55:24;100442.31;;;22.55;82.63
56270;BME280;42176;43.240;27.880;2023-09-19T04:57:24;100423.69;;;23.04;76.12
56270;BME280;42176;43.240;27.880;2023-09-19T04:59:26;100436.41;;;23.79;71.74
56270;BME280;42176;43.240;27.880;2023-09-19T05:01:26;100431.66;;;24.44;67.24
56270;BME280;42176;43.240;27.880;2023-09-19T05:03:27;100427.41;;;25.00;63.05
56270;BME280;42176;43.240;27.880;2023-09-19T05:05:30;100424.75;;;25.34;61.09
56270;BME280;42176;43.240;27.880;2023-09-19T05:07:31;100430.91;;;25.71;58.61
56270;BME280;42176;43.240;27.880;2023-09-19T05:09:31;100424.50;;;25.72;57.79
56270;BME280;42176;43.240;27.880;2023-09-19T05:11:37;100428.69;;;25.98;56.73
56270;BME280;42176;43.240;27.880;2023-09-19T05:13:39;100414.75;;;26.36;54.48
56270;BME280;42176;43.240;27.880;2023-09-19T05:15:39;100414.50;;;26.93;52.50
56270;BME280;42176;43.240;27.880;2023-09-19T05:17:40;100423.44;;;27.57;50.20
56270;BME280;42176;43.240;27.880;2023-09-19T05:19:46;100426.50;;;28.24;47.55
56270;BME280;42176;43.240;27.880;2023-09-19T05:21:46;100433.00;;;28.62;46.28
56270;BME280;42176;43.240;27.880;2023-09-19T05:23:47;100432.38;;;29.08;44.88
56270;BME280;42176;43.240;27.880;2023-09-19T05:25:47;100425.25;;;29.72;43.57
56270;BME280;42176;43.240;27.880;2023-09-19T05:27:49;100426.84;;;30.03;42.77
56270;BME280;42176;43.240;27.880;2023-09-19T05:29:51;100424.22;;;30.47;41.55
56270;BME280;42176;43.240;27.880;2023-09-19T05:31:53;100426.72;;;30.59;40.86
56270;BME280;42176;43.240;27.880;2023-09-19T05:33:55;100428.94;;;30.99;39.61
56270;BME280;42176;43.240;27.880;2023-09-19T05:35:55;100429.53;;;31.11;38.96
56270;BME280;42176;43.240;27.880;2023-09-19T05:37:57;100392.56;;;31.34;38.81
56270;BME280;42176;43.240;27.880;2023-09-19T05:39:58;100416.72;;;31.38;38.69
56270;BME280;42176;43.240;27.880;2023-09-19T05:41:58;100421.81;;;31.33;38.84
56270;BME280;42176;43.240;27.880;2023-09-19T05:44:00;100418.66;;;31.89;37.93
56270;BME280;42176;43.240;27.880;2023-09-19T05:46:03;100417.00;;;32.04;37.17
56270;BME280;42176;43.240;27.880;2023-09-19T05:48:13;100419.47;;;32.49;36.63
56270;BME280;42176;43.240;27.880;2023-09-19T05:50:17;100421.22;;;33.00;35.61
56270;BME280;42176;43.240;27.880;2023-09-19T05:52:18;100419.75;;;33.37;34.82
56270;BME280;42176;43.240;27.880;2023-09-19T05:54:22;100426.09;;;33.85;34.02
56270;BME280;42176;43.240;27.880;2023-09-19T05:56:23;100418.31;;;33.58;34.00
56270;BME280;42176;43.240;27.880;2023-09-19T05:58:42;100430.56;;;34.18;33.19
56270;BME280;42176;43.240;27.880;2023-09-19T06:00:44;100435.03;;;34.51;32.84
56270;BME280;42176;43.240;27.880;2023-09-19T06:02:56;100424.09;;;34.81;32.16
56270;BME280;42176;43.240;27.880;2023-09-19T06:04:57;100428.75;;;35.03;31.81
56270;BME280;42176;43.240;27.880;2023-09-19T06:07:00;100431.59;;;35.25;31.37
56270;BME280;42176;43.240;27.880;2023-09-19T06:09:04;100424.03;;;35.57;30.76
56270;BME280;42176;43.240;27.880;2023-09-19T06:11:08;100430.69;;;35.48;30.67
56270;BME280;42176;43.240;27.880;2023-09-19T06:13:09;100431.38;;;36.02;30.18
56270;BME280;42176;43.240;27.880;2023-09-19T06:15:16;100430.00;;;35.76;30.44
56270;BME280;42176;43.240;27.880;2023-09-19T06:17:19;100438.50;;;36.33;29.83
56270;BME280;42176;43.240;27.880;2023-09-19T06:19:20;100444.72;;;35.53;30.77
56270;BME280;42176;43.240;27.880;2023-09-19T06:21:23;100446.50;;;35.16;31.19
56270;BME280;42176;43.240;27.880;2023-09-19T06:23:23;100436.34;;;35.91;29.78
56270;BME280;42176;43.240;27.880;2023-09-19T06:25:26;100445.13;;;35.80;29.87
56270;BME280;42176;43.240;27.880;2023-09-19T06:27:27;100447.38;;;35.76;30.17
56270;BME280;42176;43.240;27.880;2023-09-19T06:29:29;100449.09;;;35.32;30.42
56270;BME280;42176;43.240;27.880;2023-09-19T06:31:35;100456.72;;;35.60;29.97
56270;BME280;42176;43.240;27.880;2023-09-19T06:33:38;100450.03;;;35.85;29.96
56270;BME280;42176;43.240;27.880;2023-09-19T06:35:39;100452.88;;;36.06;29.65
56270;BME280;42176;43.240;27.880;2023-09-19T06:37:42;100442.25;;;33.80;32.12
56270;BME280;42176;43.240;27.880;2023-09-19T06:39:43;100457.38;;;32.45;34.82
56270;BME280;42176;43.240;27.880;2023-09-19T06:41:43;100456.03;;;31.29;37.04
56270;BME280;42176;43.240;27.880;2023-09-19T06:43:46;100460.22;;;31.41;36.68
56270;BME280;42176;43.240;27.880;2023-09-19T06:45:47;100430.06;;;30.16;38.63
56270;BME280;42176;43.240;27.880;2023-09-19T06:47:49;100454.28;;;30.83;38.00
56270;BME280;42176;43.240;27.880;2023-09-19T06:49:50;100462.75;;;29.42;40.60
56270;BME280;42176;43.240;27.880;2023-09-19T06:51:53;100457.13;;;28.77;42.04
56270;BME280;42176;43.240;27.880;2023-09-19T06:53:54;100454.78;;;28.33;43.09
56270;BME280;42176;43.240;27.880;2023-09-19T06:55:57;100445.31;;;28.66;43.02
56270;BME280;42176;43.240;27.880;2023-09-19T06:57:58;100450.19;;;28.33;43.96
56270;BME280;42176;43.240;27.880;2023-09-19T06:59:59;100440.94;;;28.05;45.06
56270;BME280;42176;43.240;27.880;2023-09-19T07:02:01;100452.53;;;27.97;45.46
56270;BME280;42176;43.240;27.880;2023-09-19T07:04:02;100454.03;;;27.70;46.54
56270;BME280;42176;43.240;27.880;2023-09-19T07:06:05;100452.81;;;27.53;46.61
56270;BME280;42176;43.240;27.880;2023-09-19T07:08:06;100446.78;;;27.49;46.98
56270;BME280;42176;43.240;27.880;2023-09-19T07:10:07;100451.84;;;26.90;48.30
56270;BME280;42176;43.240;27.880;2023-09-19T07:12:11;100459.25;;;26.56;49.67
56270;BME280;42176;43.240;27.880;2023-09-19T07:14:12;100456.94;;;26.51;49.85
56270;BME280;42176;43.240;27.880;2023-09-19T07:16:13;100461.44;;;26.41;50.31
56270;BME280;42176;43.240;27.880;2023-09-19T07:18:14;100466.91;;;26.18;52.03
56270;BME280;42176;43.240;27.880;2023-09-19T07:20:16;100468.44;;;25.99;53.07
56270;BME280;42176;43.240;27.880;2023-09-19T07:22:16;100467.47;;;25.66;54.27
56270;BME280;42176;43.240;27.880;2023-09-19T07:24:17;100460.94;;;25.58;54.57
56270;BME280;42176;43.240;27.880;2023-09-19T07:26:20;100463.19;;;25.05;55.49
56270;BME280;42176;43.240;27.880;2023-09-19T07:28:21;100458.69;;;24.93;57.68
56270;BME280;42176;43.240;27.880;2023-09-19T07:30:22;100448.75;;;24.45;60.28
56270;BME280;42176;43.240;27.880;2023-09-19T07:32:23;100459.13;;;23.90;63.87
56270;BME280;42176;43.240;27.880;2023-09-19T07:34:24;100459.31;;;24.12;63.58
56270;BME280;42176;43.240;27.880;2023-09-19T07:36:24;100460.41;;;24.34;60.56
56270;BME280;42176;43.240;27.880;2023-09-19T07:38:25;100458.75;;;24.44;60.90
56270;BME280;42176;43.240;27.880;2023-09-19T07:40:28;100459.44;;;25.42;56.73
56270;BME280;42176;43.240;27.880;2023-09-19T07:42:29;100462.06;;;25.08;57.82
56270;BME280;42176;43.240;27.880;2023-09-19T07:44:29;100453.03;;;24.96;57.93
56270;BME280;42176;43.240;27.880;2023-09-19T07:46:30;100446.91;;;25.05;57.56
56270;BME280;42176;43.240;27.880;2023-09-19T07:48:31;100452.06;;;25.08;58.21
56270;BME280;42176;43.240;27.880;2023-09-19T07:50:36;100441.22;;;25.08;57.43
56270;BME280;42176;43.240;27.880;2023-09-19T07:52:37;100435.03;;;24.95;57.95
56270;BME280;42176;43.240;27.880;2023-09-19T07:54:39;100433.81;;;25.11;57.29
56270;BME280;42176;43.240;27.880;2023-09-19T07:56:44;100441.72;;;25.14;57.21
56270;BME280;42176;43.240;27.880;2023-09-19T07:58:50;100428.69;;;25.19;56.80
56270;BME280;42176;43.240;27.880;2023-09-19T08:00:52;100435.69;;;25.33;56.09
56270;BME280;42176;43.240;27.880;2023-09-19T08:02:55;100447.44;;;25.33;55.89
56270;BME280;42176;43.240;27.880;2023-09-19T08:04:58;100437.28;;;25.13;56.75
56270;BME280;42176;43.240;27.880;2023-09-19T08:07:00;100440.31;;;24.85;58.18
56270;BME280;42176;43.240;27.880;2023-09-19T08:09:03;100435.19;;;24.69;58.74
56270;BME280;42176;43.240;27.880;2023-09-19T08:11:10;100430.81;;;24.80;58.12
56270;BME280;42176;43.240;27.880;2023-09-19T08:13:14;100433.44;;;24.68;59.04
56270;BME280;42176;43.240;27.880;2023-09-19T08:15:19;100429.84;;;24.92;58.24
56270;BME280;42176;43.240;27.880;2023-09-19T08:17:20;100431.38;;;25.19;57.38
56270;BME280;42176;43.240;27.880;2023-09-19T08:19:22;100433.38;;;25.85;54.96
56270;BME280;42176;43.240;27.880;2023-09-19T08:21:23;100436.81;;;25.87;55.55
56270;BME280;42176;43.240;27.880;2023-09-19T08:23:24;100425.84;;;25.77;56.40
56270;BME280;42176;43.240;27.880;2023-09-19T08:25:24;100427.72;;;25.77;57.54
56270;BME280;42176;43.240;27.880;2023-09-19T08:27:29;100425.75;;;25.79;57.59
56270;BME280;42176;43.240;27.880;2023-09-19T08:29:31;100428.47;;;25.79;58.10
56270;BME280;42176;43.240;27.880;2023-09-19T08:31:31;100422.25;;;25.88;57.92
56270;BME280;42176;43.240;27.880;2023-09-19T08:33:35;100428.16;;;26.16;56.70
56270;BME280;42176;43.240;27.880;2023-09-19T08:35:36;100411.72;;;27.04;53.08
56270;BME280;42176;43.240;27.880;2023-09-19T08:37:38;100409.44;;;28.61;48.86
56270;BME280;42176;43.240;27.880;2023-09-19T08:39:38;100404.22;;;28.97;47.10
56270;BME280;42176;43.240;27.880;2023-09-19T08:41:39;100404.06;;;29.56;44.93
56270;BME280;42176;43.240;27.880;2023-09-19T08:43:42;100403.59;;;29.23;45.51
56270;BME280;42176;43.240;27.880;2023-09-19T08:45:43;100399.78;;;30.64;42.16
56270;BME280;42176;43.240;27.880;2023-09-19T08:47:45;100395.66;;;31.12;40.89
56270;BME280;42176;43.240;27.880;2023-09-19T08:50:04;100401.59;;;31.26;36.36
56270;BME280;42176;43.240;27.880;2023-09-19T08:52:34;100395.22;;;29.90;37.10
56270;BME280;42176;43.240;27.880;2023-09-19T08:54:38;100395.22;;;29.90;37.47
56270;BME280;42176;43.240;27.880;2023-09-19T08:56:41;100390.59;;;30.37;36.08
56270;BME280;42176;43.240;27.880;2023-09-19T08:58:49;100379.78;;;30.90;35.76
56270;BME280;42176;43.240;27.880;2023-09-19T09:00:52;100380.00;;;30.34;36.88
56270;BME280;42176;43.240;27.880;2023-09-19T09:02:55;100382.72;;;28.94;39.30
56270;BME280;42176;43.240;27.880;2023-09-19T09:04:58;100380.69;;;27.16;42.37
56270;BME280;42176;43.240;27.880;2023-09-19T09:07:00;100381.88;;;26.39;44.31
56270;BME280;42176;43.240;27.880;2023-09-19T09:09:01;100388.13;;;26.29;44.96
56270;BME280;42176;43.240;27.880;2023-09-19T09:11:03;100381.53;;;25.99;47.00
56270;BME280;42176;43.240;27.880;2023-09-19T09:13:04;100379.59;;;25.79;47.87
56270;BME280;42176;43.240;27.880;2023-09-19T09:15:09;100384.56;;;25.51;46.81
56270;BME280;42176;43.240;27.880;2023-09-19T09:17:12;100373.66;;;24.94;46.79
56270;BME280;42176;43.240;27.880;2023-09-19T09:19:13;100358.50;;;24.91;47.30
56270;BME280;42176;43.240;27.880;2023-09-19T09:21:25;100374.16;;;25.11;47.13
56270;BME280;42176;43.240;27.880;2023-09-19T09:23:27;100367.75;;;25.00;48.01
56270;BME280;42176;43.240;27.880;2023-09-19T09:25:47;100374.16;;;24.88;48.30
56270;BME280;42176;43.240;27.880;2023-09-19T09:27:59;100375.63;;;24.92;50.50
56270;BME280;42176;43.240;27.880;2023-09-19T09:30:03;100376.78;;;25.12;50.99
56270;BME280;42176;43.240;27.880;2023-09-19T09:32:17;100372.19;;;25.01;50.53
56270;BME280;42176;43.240;27.880;2023-09-19T09:34:18;100373.75;;;24.45;51.24
56270;BME280;42176;43.240;27.880;2023-09-19T09:36:40;100364.44;;;24.61;51.69
56270;BME280;42176;43.240;27.880;2023-09-19T09:38:45;100364.53;;;24.84;51.12
56270;BME280;42176;43.240;27.880;2023-09-19T09:40:54;100356.91;;;25.12;52.53
56270;BME280;42176;43.240;27.880;2023-09-19T09:43:27;100367.63;;;25.36;51.84
56270;BME280;42176;43.240;27.880;2023-09-19T09:45:28;100366.16;;;25.09;51.88
56270;BME280;42176;43.240;27.880;2023-09-19T09:47:47;100361.09;;;25.16;53.60
56270;BME280;42176;43.240;27.880;2023-09-19T09:50:11;100357.66;;;24.91;53.49
56270;BME280;42176;43.240;27.880;2023-09-19T09:52:17;100347.78;;;25.24;54.18
56270;BME280;42176;43.240;27.880;2023-09-19T09:54:21;100344.09;;;25.36;53.54
56270;BME280;42176;43.240;27.880;2023-09-19T09:56:22;100344.97;;;25.26;54.10
56270;BME280;42176;43.240;27.880;2023-09-19T09:58:23;100350.50;;;25.35;53.90
56270;BME280;42176;43.240;27.880;2023-09-19T10:00:29;100348.28;;;25.29;54.48
56270;BME280;42176;43.240;27.880;2023-09-19T10:02:43;100348.78;;;25.12;54.77
56270;BME280;42176;43.240;27.880;2023-09-19T10:04:49;100353.94;;;24.92;56.34
56270;BME280;42176;43.240;27.880;2023-09-19T10:06:59;100348.41;;;24.93;55.16
56270;BME280;42176;43.240;27.880;2023-09-19T10:09:08;100339.88;;;24.87;55.13
56270;BME280;42176;43.240;27.880;2023-09-19T10:11:17;100356.56;;;24.58;54.58
56270;BME280;42176;43.240;27.880;2023-09-19T10:13:20;100360.94;;;24.47;54.81
56270;BME280;42176;43.240;27.880;2023-09-19T10:15:24;100349.44;;;24.21;55.18
56270;BME280;42176;43.240;27.880;2023-09-19T10:17:27;100333.06;;;24.34;55.59
56270;BME280;42176;43.240;27.880;2023-09-19T10:19:37;100343.16;;;24.32;55.72
56270;BME280;42176;43.240;27.880;2023-09-19T10:21:38;100335.81;;;24.45;53.36
56270;BME280;42176;43.240;27.880;2023-09-19T10:23:40;100335.19;;;24.06;55.98
56270;BME280;42176;43.240;27.880;2023-09-19T10:25:44;100336.03;;;24.07;56.69
56270;BME280;42176;43.240;27.880;2023-09-19T10:27:49;100333.31;;;24.31;56.39
56270;BME280;42176;43.240;27.880;2023-09-19T10:29:51;100332.38;;;24.43;57.39
56270;BME280;42176;43.240;27.880;2023-09-19T10:31:57;100328.19;;;24.51;57.04
56270;BME280;42176;43.240;27.880;2023-09-19T10:33:58;100311.72;;;24.54;58.58
56270;BME280;42176;43.240;27.880;2023-09-19T10:36:00;100333.81;;;24.36;61.02
56270;BME280;42176;43.240;27.880;2023-09-19T10:38:03;100337.16;;;24.04;64.03
56270;BME280;42176;43.240;27.880;2023-09-19T10:40:07;100333.00;;;24.11;65.72
56270;BME280;42176;43.240;27.880;2023-09-19T10:42:15;100327.34;;;24.14;65.99
56270;BME280;42176;43.240;27.880;2023-09-19T10:44:24;100337.72;;;24.21;66.47
56270;BME280;42176;43.240;27.880;2023-09-19T10:46:28;100332.84;;;23.88;69.30
56270;BME280;42176;43.240;27.880;2023-09-19T10:48:32;100311.69;;;23.82;70.26
56270;BME280;42176;43.240;27.880;2023-09-19T10:50:44;100326.66;;;23.75;69.74